Time;durP1;ratioP1;P1;durP2;ratioP2;P2;SDS_P1;SDS_P2;PMS_P1;PMS_P2;Temp;Humidity;BMP_temperature;BMP_pressure;BME280_temperature;BME280_humidity;BME280_pressure;Samples;Min_cycle;Max_cycle;Signal;HPM_P1;HPM_P2
2024/02/04 00:00:31;;;;;;;;;;;;;;;13.81;48.50;100941.28;4943935;28;98274;-67
2024/02/04 00:02:57;;;;;;;;;;;;;;;13.81;48.51;100938.59;4940921;28;99588;-70
2024/02/04 00:05:23;;;;;;;;;;;;;;;13.80;48.43;100931.53;4927128;28;114649;-70
2024/02/04 00:07:49;;;;;;;;;;;;;;;13.79;48.14;100932.59;4922912;28;98215;-67
2024/02/04 00:10:17;;;;;;;;;;;;;;;13.80;48.25;100922.63;4928598;28;99962;-70
2024/02/04 00:12:43;;;;;;;;;;;;;;;13.80;48.17;100919.91;4960878;28;98201;-67
2024/02/04 00:15:10;;;;;;;;;;;;;;;13.79;48.51;100916.34;4938076;28;99678;-67
2024/02/04 00:17:37;;;;;;;;;;;;;;;13.79;48.59;100916.34;4960083;28;99421;-70
2024/02/04 00:20:05;;;;;;;;;;;;;;;13.79;48.06;100927.19;4924477;28;98190;-67
2024/02/04 00:22:33;;;;;;;;;;;;;;;13.79;48.45;100932.59;4958096;28;98092;-70
2024/02/04 00:25:04;;;;;;;;;;;;;;;13.77;48.23;100947.53;4913115;28;98142;-68
2024/02/04 00:27:32;;;;;;;;;;;;;;;13.74;48.22;100968.66;4944821;28;99219;-72
2024/02/04 00:29:58;;;;;;;;;;;;;;;13.72;48.52;100975.47;4958134;28;98037;-71
2024/02/04 00:32:25;;;;;;;;;;;;;;;13.70;48.19;100967.59;4937408;28;98036;-68
2024/02/04 00:34:53;;;;;;;;;;;;;;;13.68;48.47;100963.56;4947158;28;98085;-67
2024/02/04 00:37:19;;;;;;;;;;;;;;;13.67;48.52;100964.63;4939131;28;98970;-70
2024/02/04 00:39:46;;;;;;;;;;;;;;;13.65;48.41;100961.41;4957993;28;98304;-67
2024/02/04 00:42:12;;;;;;;;;;;;;;;13.62;48.26;100949.22;4917505;28;100419;-70
2024/02/04 00:44:43;;;;;;;;;;;;;;;13.60;48.27;100959.53;4951837;28;98781;-67
2024/02/04 00:47:13;;;;;;;;;;;;;;;13.60;48.36;100967.66;4947970;27;98130;-70
2024/02/04 00:49:39;;;;;;;;;;;;;;;13.58;48.60;100960.88;4943689;28;100197;-67
2024/02/04 00:52:06;;;;;;;;;;;;;;;13.57;48.47;100954.66;4961479;28;99556;-67
2024/02/04 00:54:32;;;;;;;;;;;;;;;13.55;48.24;100956.81;4943881;28;116080;-67
2024/02/04 00:56:59;;;;;;;;;;;;;;;13.54;48.31;100962.50;4942168;28;98640;-67
2024/02/04 00:59:26;;;;;;;;;;;;;;;13.51;48.64;100966.56;4938005;28;98478;-66
2024/02/04 01:01:51;;;;;;;;;;;;;;;13.50;48.56;100964.94;4941496;28;98365;-70
2024/02/04 01:04:18;;;;;;;;;;;;;;;13.48;48.55;100970.66;4925139;27;121012;-70
2024/02/04 01:06:43;;;;;;;;;;;;;;;13.47;48.21;100976.31;4925898;28;98013;-70
2024/02/04 01:09:11;;;;;;;;;;;;;;;13.45;48.49;100967.69;4947002;28;110580;-66
2024/02/04 01:11:37;;;;;;;;;;;;;;;13.42;48.63;100968.22;4942860;28;100967;-66
2024/02/04 01:14:03;;;;;;;;;;;;;;;13.39;48.65;100969.56;4944247;28;98336;-66
2024/02/04 01:16:30;;;;;;;;;;;;;;;13.37;48.45;100963.63;4925762;28;98085;-69
2024/02/04 01:18:56;;;;;;;;;;;;;;;13.36;48.36;100964.72;4959186;28;97909;-66
2024/02/04 01:21:22;;;;;;;;;;;;;;;13.34;48.46;100958.75;4959525;28;128598;-66
2024/02/04 01:23:48;;;;;;;;;;;;;;;13.34;48.32;100960.66;4914207;28;98132;-66
2024/02/04 01:26:15;;;;;;;;;;;;;;;13.30;48.61;100951.47;4952304;28;98784;-69
2024/02/04 01:28:41;;;;;;;;;;;;;;;13.30;48.28;100951.47;4943199;28;99893;-66
2024/02/04 01:31:07;;;;;;;;;;;;;;;13.29;48.50;100964.19;4963100;28;98012;-69
2024/02/04 01:33:32;;;;;;;;;;;;;;;13.27;48.25;100963.63;4962360;28;119745;-69
2024/02/04 01:35:59;;;;;;;;;;;;;;;13.27;48.38;100967.16;4953947;28;112857;-66
2024/02/04 01:38:25;;;;;;;;;;;;;;;13.26;48.39;100975.56;4944061;28;98249;-65
2024/02/04 01:40:52;;;;;;;;;;;;;;;13.24;48.31;100956.06;4913128;28;126302;-66
2024/02/04 01:43:20;;;;;;;;;;;;;;;13.23;48.64;100943.63;4954928;28;98270;-66
2024/02/04 01:45:47;;;;;;;;;;;;;;;13.21;48.50;100937.66;4946717;28;99926;-69
2024/02/04 01:48:15;;;;;;;;;;;;;;;13.19;48.27;100924.38;4967760;27;114011;-67
2024/02/04 01:50:41;;;;;;;;;;;;;;;13.19;48.57;100935.19;4952195;28;98164;-70
2024/02/04 01:53:07;;;;;;;;;;;;;;;13.20;48.64;100930.59;4942640;28;98040;-70
2024/02/04 01:55:33;;;;;;;;;;;;;;;13.19;48.68;100921.66;4957408;28;111226;-70
2024/02/04 01:58:00;;;;;;;;;;;;;;;13.17;48.45;100926.56;4969670;27;116221;-66
2024/02/04 02:00:26;;;;;;;;;;;;;;;13.19;48.31;100937.91;4937643;28;99677;-70
2024/02/04 02:02:52;;;;;;;;;;;;;;;13.17;48.67;100941.97;4912720;28;98282;-67
2024/02/04 02:05:18;;;;;;;;;;;;;;;13.17;48.62;100940.09;4957958;28;127219;-67
2024/02/04 02:07:45;;;;;;;;;;;;;;;13.18;48.39;100939.00;4965160;28;98158;-67
2024/02/04 02:10:12;;;;;;;;;;;;;;;13.18;48.62;100936.28;4911336;28;98633;-70
2024/02/04 02:12:58;;;;;;;;;;;;;;;13.16;48.54;100938.44;4945581;28;99409;-70
2024/02/04 02:15:29;;;;;;;;;;;;;;;13.17;48.23;100942.78;4922712;28;98414;-66
2024/02/04 02:18:05;;;;;;;;;;;;;;;13.18;48.27;100940.88;4964958;28;98735;-66
2024/02/04 02:21:00;;;;;;;;;;;;;;;13.18;48.58;100943.59;4967966;27;98018;-70
2024/02/04 02:23:36;;;;;;;;;;;;;;;13.18;48.65;100944.41;4924355;28;98181;-70
2024/02/04 02:26:03;;;;;;;;;;;;;;;13.19;48.07;100946.03;4968657;27;98194;-67
2024/02/04 02:28:29;;;;;;;;;;;;;;;13.18;48.65;100946.31;4945563;28;102513;-67
2024/02/04 02:30:55;;;;;;;;;;;;;;;13.19;48.42;100945.22;4941578;28;99223;-70
2024/02/04 02:33:21;;;;;;;;;;;;;;;13.20;48.30;100952.25;4943182;28;98746;-67
2024/02/04 02:35:49;;;;;;;;;;;;;;;13.18;48.61;100949.81;4949540;28;116280;-70
2024/02/04 02:38:31;;;;;;;;;;;;;;;13.19;48.23;100946.03;4943809;28;99199;-67
2024/02/04 02:41:04;;;;;;;;;;;;;;;13.19;48.23;100943.31;4928738;28;99256;-66
2024/02/04 02:43:30;;;;;;;;;;;;;;;13.20;48.27;100950.38;4969877;27;98057;-66
2024/02/04 02:45:56;;;;;;;;;;;;;;;13.20;48.56;100936.84;4952663;28;98222;-66
2024/02/04 02:48:23;;;;;;;;;;;;;;;13.20;48.33;100933.28;4907944;28;115730;-70
2024/02/04 02:50:49;;;;;;;;;;;;;;;13.22;48.19;100941.97;4959400;28;98206;-66
2024/02/04 02:53:15;;;;;;;;;;;;;;;13.20;48.49;100933.28;4952576;28;98239;-70
2024/02/04 02:55:42;;;;;;;;;;;;;;;13.20;48.40;100942.25;4927554;28;98236;-70
2024/02/04 02:58:11;;;;;;;;;;;;;;;13.20;48.45;100933.28;4925371;28;98327;-67
2024/02/04 03:00:37;;;;;;;;;;;;;;;13.22;48.46;100933.84;4938798;28;98249;-70
2024/02/04 03:03:04;;;;;;;;;;;;;;;13.20;48.60;100933.28;4940549;28;98504;-70
2024/02/04 03:05:30;;;;;;;;;;;;;;;13.20;48.61;100925.16;4958284;28;98575;-67
2024/02/04 03:07:56;;;;;;;;;;;;;;;13.20;48.29;100917.06;4970396;27;98286;-66
2024/02/04 03:10:22;;;;;;;;;;;;;;;13.20;48.42;100917.06;4952455;28;112103;-67
2024/02/04 03:12:48;;;;;;;;;;;;;;;13.20;48.53;100914.34;4941996;28;100285;-67
2024/02/04 03:15:14;;;;;;;;;;;;;;;13.20;48.63;100909.78;4937038;28;129099;-70
2024/02/04 03:17:40;;;;;;;;;;;;;;;13.20;48.44;100914.34;4905720;28;106493;-66
2024/02/04 03:20:06;;;;;;;;;;;;;;;13.19;48.47;100912.72;4909433;28;97900;-70
2024/02/04 03:22:33;;;;;;;;;;;;;;;13.24;48.54;100915.44;4954095;28;104791;-67
2024/02/04 03:24:59;;;;;;;;;;;;;;;13.31;48.32;100907.88;4951376;28;98166;-70
2024/02/04 03:27:27;;;;;;;;;;;;;;;13.38;48.39;100915.69;4951719;28;119144;-70
2024/02/04 03:29:54;;;;;;;;;;;;;;;13.43;48.33;100913.78;4940580;28;98224;-67
2024/02/04 03:32:20;;;;;;;;;;;;;;;13.48;48.30;100921.09;4942418;28;98904;-70
2024/02/04 03:34:46;;;;;;;;;;;;;;;13.51;48.83;100925.94;4924205;28;98329;-67
2024/02/04 03:37:14;;;;;;;;;;;;;;;13.54;48.58;100930.00;4952141;28;98400;-70
2024/02/04 03:39:40;;;;;;;;;;;;;;;13.56;48.63;100927.81;4903208;28;99693;-70
2024/02/04 03:42:06;;;;;;;;;;;;;;;13.58;48.66;100918.34;4934934;28;98175;-70
2024/02/04 03:44:32;;;;;;;;;;;;;;;13.59;48.66;100922.66;4966847;27;100121;-70
2024/02/04 03:46:58;;;;;;;;;;;;;;;13.61;48.59;100919.69;4933070;28;98203;-70
2024/02/04 03:49:24;;;;;;;;;;;;;;;13.60;48.60;100932.44;4947092;28;98161;-67
2024/02/04 03:51:50;;;;;;;;;;;;;;;13.59;48.39;100928.09;4924504;28;98016;-67
2024/02/04 03:54:18;;;;;;;;;;;;;;;13.60;48.68;100942.47;4946097;28;125246;-67
2024/02/04 03:56:45;;;;;;;;;;;;;;;13.58;48.31;100953.56;4958314;28;98067;-67
2024/02/04 03:59:11;;;;;;;;;;;;;;;13.58;48.67;100944.63;4911982;28;98661;-67
2024/02/04 04:01:38;;;;;;;;;;;;;;;13.56;48.40;100942.19;4911507;28;118316;-66
2024/02/04 04:04:04;;;;;;;;;;;;;;;13.54;48.42;100941.66;4939062;28;98352;-70
2024/02/04 04:06:30;;;;;;;;;;;;;;;13.54;48.34;100930.00;4970332;27;98906;-70
2024/02/04 04:08:58;;;;;;;;;;;;;;;13.53;48.59;100928.41;4957340;28;120711;-70
2024/02/04 04:11:24;;;;;;;;;;;;;;;13.51;48.78;100926.75;4959894;28;98435;-70
2024/02/04 04:13:51;;;;;;;;;;;;;;;13.50;48.50;100924.34;4942142;28;122754;-67
2024/02/04 04:16:21;;;;;;;;;;;;;;;13.48;48.37;100913.78;4923100;28;98423;-70
2024/02/04 04:18:48;;;;;;;;;;;;;;;13.45;48.45;100917.03;4939822;28;99046;-67
2024/02/04 04:21:15;;;;;;;;;;;;;;;13.45;48.41;100919.75;4951090;28;98519;-67
2024/02/04 04:23:41;;;;;;;;;;;;;;;13.44;48.76;100914.59;4925570;28;102050;-70
2024/02/04 04:26:07;;;;;;;;;;;;;;;13.42;48.43;100912.16;4938371;28;98623;-67
2024/02/04 04:28:33;;;;;;;;;;;;;;;13.40;48.38;100919.78;4944503;28;99630;-70
2024/02/04 04:31:00;;;;;;;;;;;;;;;13.40;48.80;100911.66;4955869;28;97986;-66
2024/02/04 04:33:27;;;;;;;;;;;;;;;13.38;48.39;100916.50;4957848;28;98161;-70
2024/02/04 04:35:53;;;;;;;;;;;;;;;13.38;48.68;100918.41;4939168;28;98511;-70
2024/02/04 04:38:19;;;;;;;;;;;;;;;13.37;48.79;100917.59;4938218;28;101338;-70
2024/02/04 04:40:45;;;;;;;;;;;;;;;13.36;48.71;100924.13;4941743;28;98138;-70
2024/02/04 04:43:11;;;;;;;;;;;;;;;13.35;48.83;100908.13;4944213;28;98183;-67
2024/02/04 04:45:37;;;;;;;;;;;;;;;13.35;48.67;100903.50;4923789;27;110940;-67
2024/02/04 04:48:04;;;;;;;;;;;;;;;13.35;48.79;100889.97;4967461;27;98160;-66
2024/02/04 04:50:30;;;;;;;;;;;;;;;13.34;48.57;100892.97;4953857;28;98096;-68
2024/02/04 04:52:56;;;;;;;;;;;;;;;13.35;48.40;100894.59;4922102;28;101135;-70
2024/02/04 04:55:22;;;;;;;;;;;;;;;13.31;48.73;100888.91;4908218;27;98274;-70
2024/02/04 04:57:48;;;;;;;;;;;;;;;13.33;48.59;100883.25;4955987;28;98612;-70
2024/02/04 05:00:15;;;;;;;;;;;;;;;13.32;48.90;100889.72;4950984;28;98594;-67
2024/02/04 05:02:42;;;;;;;;;;;;;;;13.31;48.78;100879.97;4942335;28;99896;-70
2024/02/04 05:05:08;;;;;;;;;;;;;;;13.30;48.80;100881.88;4924445;28;100451;-70
2024/02/04 05:07:34;;;;;;;;;;;;;;;13.30;48.58;100875.66;4942466;28;121288;-70
2024/02/04 05:10:00;;;;;;;;;;;;;;;13.28;48.79;100881.34;4922046;28;98404;-66
2024/02/04 05:12:27;;;;;;;;;;;;;;;13.28;48.79;100875.91;4923748;28;99588;-67
2024/02/04 05:14:53;;;;;;;;;;;;;;;13.29;48.68;100860.50;4958606;28;98080;-66
2024/02/04 05:17:19;;;;;;;;;;;;;;;13.29;48.38;100852.38;4942531;28;122640;-70
2024/02/04 05:19:45;;;;;;;;;;;;;;;13.27;48.59;100863.47;4933232;28;116943;-66
2024/02/04 05:22:11;;;;;;;;;;;;;;;13.28;48.74;100856.97;4952329;28;98924;-70
2024/02/04 05:24:37;;;;;;;;;;;;;;;13.27;48.42;100853.44;4948704;28;98127;-69
2024/02/04 05:27:04;;;;;;;;;;;;;;;13.27;48.43;100855.34;4952038;28;98292;-70
2024/02/04 05:29:31;;;;;;;;;;;;;;;13.27;48.70;100850.75;4955798;28;99291;-67
2024/02/04 05:31:58;;;;;;;;;;;;;;;13.27;48.38;100856.16;4942334;28;98252;-67
2024/02/04 05:34:24;;;;;;;;;;;;;;;13.28;48.69;100851.56;4936932;28;98244;-70
2024/02/04 05:36:50;;;;;;;;;;;;;;;13.27;48.75;100848.03;4954408;28;99087;-70
2024/02/04 05:39:16;;;;;;;;;;;;;;;13.28;48.75;100854.25;4948571;28;117616;-69
2024/02/04 05:41:42;;;;;;;;;;;;;;;13.29;48.22;100849.69;4941849;28;98356;-67
2024/02/04 05:44:08;;;;;;;;;;;;;;;13.29;48.76;100847.78;4955746;28;98206;-70
2024/02/04 05:46:38;;;;;;;;;;;;;;;13.30;48.74;100845.88;4961808;28;97859;-70
2024/02/04 05:49:04;;;;;;;;;;;;;;;13.29;48.39;100847.78;4959427;28;98424;-67
2024/02/04 05:51:40;;;;;;;;;;;;;;;13.30;48.63;100849.38;4944663;28;98671;-70
2024/02/04 05:54:07;;;;;;;;;;;;;;;13.29;48.74;100842.38;4954601;28;98068;-67
2024/02/04 05:56:33;;;;;;;;;;;;;;;13.30;48.42;100837.75;4937935;28;98098;-67
2024/02/04 05:58:59;;;;;;;;;;;;;;;13.31;48.53;100831.25;4944409;28;98302;-70
2024/02/04 06:01:25;;;;;;;;;;;;;;;13.31;48.43;100833.97;4959456;28;103225;-70
2024/02/04 06:03:51;;;;;;;;;;;;;;;13.31;48.42;100823.13;4946102;28;127300;-70
2024/02/04 06:06:19;;;;;;;;;;;;;;;13.31;48.50;100821.22;4942531;28;97971;-67
2024/02/04 06:08:46;;;;;;;;;;;;;;;13.31;48.73;100823.94;4974619;27;98124;-67
2024/02/04 06:11:12;;;;;;;;;;;;;;;13.32;48.59;100833.66;4911816;28;98151;-69
2024/02/04 06:13:45;;;;;;;;;;;;;;;13.32;48.35;100832.88;4950226;28;99762;-67
2024/02/04 06:16:14;;;;;;;;;;;;;;;13.33;48.75;100835.31;4906901;28;99172;-67
2024/02/04 06:18:41;;;;;;;;;;;;;;;13.34;48.71;100825.28;4928541;28;98713;-70
2024/02/04 06:21:07;;;;;;;;;;;;;;;13.34;48.66;100817.16;4947120;28;98935;-67
2024/02/04 06:23:33;;;;;;;;;;;;;;;13.33;48.40;100820.97;4939968;28;99828;-67
2024/02/04 06:26:00;;;;;;;;;;;;;;;13.34;48.37;100822.59;4956606;28;117537;-70
2024/02/04 06:28:26;;;;;;;;;;;;;;;13.33;48.36;100821.78;4957837;28;98009;-67
2024/02/04 06:30:53;;;;;;;;;;;;;;;13.33;48.54;100820.97;4961494;28;108274;-70
2024/02/04 06:33:19;;;;;;;;;;;;;;;13.34;48.59;100806.34;4926531;28;98090;-67
2024/02/04 06:35:46;;;;;;;;;;;;;;;13.34;48.42;100804.44;4939316;28;99273;-67
2024/02/04 06:38:12;;;;;;;;;;;;;;;13.33;48.71;100820.97;4954094;28;97966;-71
2024/02/04 06:40:38;;;;;;;;;;;;;;;13.35;48.83;100813.38;4954647;28;99219;-71
2024/02/04 06:43:04;;;;;;;;;;;;;;;13.35;48.54;100818.78;4946204;28;97910;-70
2024/02/04 06:45:30;;;;;;;;;;;;;;;13.34;48.41;100817.97;4952704;28;98415;-67
2024/02/04 06:47:56;;;;;;;;;;;;;;;13.36;48.52;100817.69;4943289;28;118448;-71
2024/02/04 06:50:22;;;;;;;;;;;;;;;13.37;48.55;100813.91;4964456;27;112140;-70
2024/02/04 06:52:48;;;;;;;;;;;;;;;13.37;48.44;100812.00;4927451;28;98040;-68
2024/02/04 06:55:15;;;;;;;;;;;;;;;13.39;48.33;100809.81;4920269;28;98990;-67
2024/02/04 06:57:41;;;;;;;;;;;;;;;13.44;48.72;100801.69;4927438;28;98209;-67
2024/02/04 07:00:09;;;;;;;;;;;;;;;13.47;48.22;100797.59;4925167;28;99529;-70
2024/02/04 07:02:35;;;;;;;;;;;;;;;13.47;48.25;100789.47;4942711;28;98151;-67
2024/02/04 07:05:01;;;;;;;;;;;;;;;13.47;48.51;100793.00;4939510;28;99120;-70
2024/02/04 07:07:28;;;;;;;;;;;;;;;13.47;48.69;100790.28;4939694;28;97992;-67
2024/02/04 07:09:54;;;;;;;;;;;;;;;13.49;48.45;100795.44;4942183;28;98832;-67
2024/02/04 07:12:20;;;;;;;;;;;;;;;13.49;48.43;100790.03;4953007;28;119076;-67
2024/02/04 07:14:47;;;;;;;;;;;;;;;13.47;48.38;100798.41;4960689;28;98021;-70
2024/02/04 07:17:16;;;;;;;;;;;;;;;13.49;48.23;100803.56;4940418;28;97924;-69
2024/02/04 07:19:43;;;;;;;;;;;;;;;13.49;48.46;100796.25;4949004;27;98484;-71
2024/02/04 07:22:09;;;;;;;;;;;;;;;13.49;48.39;100788.13;4916147;28;98311;-68
2024/02/04 07:24:35;;;;;;;;;;;;;;;13.49;48.46;100792.72;4950323;28;98287;-71
2024/02/04 07:27:01;;;;;;;;;;;;;;;13.51;48.29;100793.25;4955267;28;98928;-68
2024/02/04 07:29:27;;;;;;;;;;;;;;;13.50;48.51;100791.63;4936553;28;98416;-71
2024/02/04 07:31:53;;;;;;;;;;;;;;;13.50;48.66;100797.06;4941843;28;103523;-71
2024/02/04 07:34:19;;;;;;;;;;;;;;;13.50;48.62;100784.31;4932729;28;109334;-68
2024/02/04 07:36:45;;;;;;;;;;;;;;;13.51;48.33;100788.63;4907447;28;98353;-72
2024/02/04 07:39:11;;;;;;;;;;;;;;;13.51;48.45;100777.81;4916707;28;101936;-68
2024/02/04 07:41:38;;;;;;;;;;;;;;;13.53;48.70;100777.53;4932126;28;98238;-69
2024/02/04 07:44:04;;;;;;;;;;;;;;;13.54;48.70;100786.47;4925151;28;98572;-71
2024/02/04 07:46:30;;;;;;;;;;;;;;;13.53;48.74;100782.97;4937914;28;98380;-71
2024/02/04 07:48:56;;;;;;;;;;;;;;;13.54;48.72;100794.59;4954077;28;98770;-68
2024/02/04 07:51:23;;;;;;;;;;;;;;;13.54;48.75;100786.47;4933782;28;112149;-67
2024/02/04 07:53:49;;;;;;;;;;;;;;;13.55;48.53;100785.38;4934319;28;98316;-70
2024/02/04 07:56:15;;;;;;;;;;;;;;;13.61;48.24;100770.72;4933960;28;98948;-70
2024/02/04 07:58:41;;;;;;;;;;;;;;;13.66;48.35;100776.09;4938071;28;99872;-71
2024/02/04 08:01:10;;;;;;;;;;;;;;;13.71;48.65;100782.28;4918018;28;98070;-68
2024/02/04 08:03:36;;;;;;;;;;;;;;;13.70;48.47;100783.38;4922181;28;98090;-67
2024/02/04 08:06:03;;;;;;;;;;;;;;;13.68;48.59;100782.88;4946336;28;98154;-70
2024/02/04 08:08:29;;;;;;;;;;;;;;;13.68;48.32;100784.78;4950375;28;98022;-70
2024/02/04 08:10:57;;;;;;;;;;;;;;;13.69;48.37;100792.63;4923062;28;119442;-67
2024/02/04 08:13:25;;;;;;;;;;;;;;;13.71;48.64;100795.03;4947224;28;99011;-67
2024/02/04 08:15:51;;;;;;;;;;;;;;;13.81;48.55;100778.72;4937902;28;98392;-70
2024/02/04 08:18:17;;;;;;;;;;;;;;;13.94;48.39;100769.94;4953822;28;98114;-67
2024/02/04 08:20:43;;;;;;;;;;;;;;;14.10;48.30;100767.94;4915349;28;99626;-67
2024/02/04 08:23:09;;;;;;;;;;;;;;;14.23;48.13;100753.75;4918889;28;119323;-70
2024/02/04 08:25:36;;;;;;;;;;;;;;;14.34;48.21;100765.28;4935372;28;117232;-69
2024/02/04 08:28:02;;;;;;;;;;;;;;;14.45;47.92;100763.28;4947237;28;98416;-70
2024/02/04 08:30:28;;;;;;;;;;;;;;;14.57;47.97;100769.16;4936106;28;117140;-70
2024/02/04 08:32:54;;;;;;;;;;;;;;;14.67;47.74;100768.28;4940663;28;108174;-67
2024/02/04 08:35:20;;;;;;;;;;;;;;;14.78;47.89;100769.78;4933578;28;98441;-69
2024/02/04 08:37:46;;;;;;;;;;;;;;;14.88;47.64;100763.44;4936196;28;115074;-67
2024/02/04 08:40:12;;;;;;;;;;;;;;;14.92;47.85;100767.97;4963299;27;100296;-70
2024/02/04 08:42:40;;;;;;;;;;;;;;;14.98;47.67;100769.56;4936020;28;98961;-67
2024/02/04 08:45:06;;;;;;;;;;;;;;;15.03;47.96;100773.31;4921950;28;98430;-70
2024/02/04 08:47:32;;;;;;;;;;;;;;;15.03;47.82;100759.72;4946845;28;98277;-70
2024/02/04 08:49:59;;;;;;;;;;;;;;;15.07;47.67;100756.16;4952300;28;98205;-67
2024/02/04 08:52:25;;;;;;;;;;;;;;;15.14;47.80;100755.81;4938097;28;98077;-69
2024/02/04 08:54:50;;;;;;;;;;;;;;;15.23;47.60;100754.03;4950288;28;98306;-66
2024/02/04 08:57:17;;;;;;;;;;;;;;;15.30;47.54;100749.06;4949479;28;116308;-66
2024/02/04 08:59:43;;;;;;;;;;;;;;;15.40;47.71;100753.53;4939092;28;98313;-67
2024/02/04 09:02:09;;;;;;;;;;;;;;;15.47;47.67;100751.28;4937910;28;98102;-66
2024/02/04 09:04:40;;;;;;;;;;;;;;;15.50;47.89;100752.63;4954252;28;98089;-67
2024/02/04 09:07:07;;;;;;;;;;;;;;;15.54;47.81;100753.66;4948552;28;98975;-67
2024/02/04 09:09:33;;;;;;;;;;;;;;;15.66;47.66;100754.03;4938647;28;99906;-69
2024/02/04 09:11:59;;;;;;;;;;;;;;;15.75;47.53;100749.53;4936403;28;108712;-66
2024/02/04 09:14:25;;;;;;;;;;;;;;;15.80;47.48;100745.94;4955347;28;98577;-67
2024/02/04 09:16:51;;;;;;;;;;;;;;;15.78;47.77;100750.88;4904051;28;114686;-70
2024/02/04 09:19:17;;;;;;;;;;;;;;;15.77;47.85;100741.91;4934623;28;117815;-70
2024/02/04 09:21:43;;;;;;;;;;;;;;;15.74;47.84;100734.34;4920926;28;98047;-67
2024/02/04 09:24:11;;;;;;;;;;;;;;;15.73;47.74;100724.59;4953840;28;115962;-66
2024/02/04 09:26:37;;;;;;;;;;;;;;;15.75;47.89;100725.09;4938355;28;99849;-66
2024/02/04 09:29:04;;;;;;;;;;;;;;;15.76;48.16;100734.03;4954535;28;98369;-66
2024/02/04 09:31:30;;;;;;;;;;;;;;;15.77;47.86;100724.81;4940716;28;98926;-67
2024/02/04 09:33:57;;;;;;;;;;;;;;;15.77;47.96;100731.03;4933641;28;98266;-69
2024/02/04 09:36:23;;;;;;;;;;;;;;;15.75;48.02;100735.16;4942598;28;100441;-66
2024/02/04 09:38:49;;;;;;;;;;;;;;;15.80;48.00;100735.06;4911573;28;98480;-66
2024/02/04 09:41:15;;;;;;;;;;;;;;;15.85;47.94;100729.56;4949420;28;98705;-66
2024/02/04 09:43:41;;;;;;;;;;;;;;;15.88;47.94;100726.28;4937277;28;98021;-69
2024/02/04 09:46:07;;;;;;;;;;;;;;;15.82;47.91;100738.31;4923263;28;110087;-69
2024/02/04 09:48:33;;;;;;;;;;;;;;;15.73;48.15;100729.22;4939146;28;129483;-69
2024/02/04 09:50:59;;;;;;;;;;;;;;;15.69;48.16;100721.66;4945435;28;112485;-69
2024/02/04 09:53:35;;;;;;;;;;;;;;;15.65;48.04;100717.09;4941253;28;98296;-66
2024/02/04 09:56:08;;;;;;;;;;;;;;;15.58;48.22;100712.00;4938344;27;98733;-66
2024/02/04 09:58:34;;;;;;;;;;;;;;;15.49;48.31;100708.34;4955753;27;98362;-66
2024/02/04 10:01:00;;;;;;;;;;;;;;;15.42;48.26;100713.34;4924577;28;99119;-66
2024/02/04 10:03:28;;;;;;;;;;;;;;;15.35;48.29;100721.03;4940416;28;98522;-69
2024/02/04 10:05:54;;;;;;;;;;;;;;;15.30;48.55;100721.91;4935175;28;98124;-66
2024/02/04 10:08:20;;;;;;;;;;;;;;;15.27;48.50;100727.94;4940028;28;99312;-66
2024/02/04 10:10:47;;;;;;;;;;;;;;;15.22;48.60;100720.66;4935803;28;99584;-66
2024/02/04 10:13:13;;;;;;;;;;;;;;;15.18;48.41;100711.47;4937861;28;98204;-66
2024/02/04 10:15:39;;;;;;;;;;;;;;;15.16;48.45;100715.56;4955245;28;98409;-71
2024/02/04 10:18:05;;;;;;;;;;;;;;;15.14;48.32;100710.44;4941192;28;98526;-68
2024/02/04 10:20:32;;;;;;;;;;;;;;;15.13;48.35;100702.59;4920916;28;99121;-65
2024/02/04 10:22:58;;;;;;;;;;;;;;;15.15;48.24;100697.69;4953334;28;98155;-68
2024/02/04 10:25:25;;;;;;;;;;;;;;;15.17;48.44;100701.72;4968675;27;98235;-65
2024/02/04 10:27:51;;;;;;;;;;;;;;;15.20;48.28;100692.19;4950805;28;98676;-65
2024/02/04 10:30:20;;;;;;;;;;;;;;;15.21;48.30;100701.97;4902085;28;104998;-65
2024/02/04 10:32:48;;;;;;;;;;;;;;;15.23;48.27;100692.41;4953706;28;98169;-65
2024/02/04 10:35:14;;;;;;;;;;;;;;;15.28;48.27;100682.56;4940702;28;98638;-69
2024/02/04 10:37:40;;;;;;;;;;;;;;;15.33;48.30;100675.16;4959576;27;98435;-69
2024/02/04 10:40:07;;;;;;;;;;;;;;;15.36;48.26;100677.28;4950152;28;128087;-65
2024/02/04 10:42:33;;;;;;;;;;;;;;;15.41;48.22;100673.69;4939862;28;97940;-69
2024/02/04 10:44:59;;;;;;;;;;;;;;;15.40;48.27;100670.16;4938967;28;98282;-65
2024/02/04 10:47:32;;;;;;;;;;;;;;;15.43;48.31;100663.34;4938626;28;112314;-65
2024/02/04 10:49:59;;;;;;;;;;;;;;;15.44;47.86;100656.78;4935428;28;99234;-65
2024/02/04 10:52:27;;;;;;;;;;;;;;;15.47;48.16;100650.78;4910488;28;98153;-65
2024/02/04 10:54:53;;;;;;;;;;;;;;;15.51;48.14;100640.94;4920550;28;104039;-69
2024/02/04 10:57:23;;;;;;;;;;;;;;;15.55;48.11;100641.16;4954847;28;99530;-65
2024/02/04 10:59:49;;;;;;;;;;;;;;;15.64;48.26;100639.38;4937972;28;100224;-69
2024/02/04 11:02:17;;;;;;;;;;;;;;;15.67;48.04;100639.59;4924966;28;98754;-69
2024/02/04 11:04:43;;;;;;;;;;;;;;;15.75;47.88;100635.41;4934508;28;98061;-70
2024/02/04 11:07:10;;;;;;;;;;;;;;;15.79;48.15;100633.72;4920843;28;98442;-70
2024/02/04 11:09:37;;;;;;;;;;;;;;;15.85;48.03;100627.09;4940157;28;98227;-70
2024/02/04 11:12:04;;;;;;;;;;;;;;;15.92;47.91;100615.84;4939830;28;98534;-67
2024/02/04 11:14:31;;;;;;;;;;;;;;;16.03;47.90;100619.97;4955936;28;98017;-67
2024/02/04 11:17:26;;;;;;;;;;;;;;;16.12;47.73;100611.94;4934881;28;98142;-70
2024/02/04 11:20:13;;;;;;;;;;;;;;;16.19;47.85;100607.72;4934109;28;100156;-67
2024/02/04 11:23:17;;;;;;;;;;;;;;;16.25;47.87;100607.59;4932613;28;98163;-67
2024/02/04 11:25:48;;;;;;;;;;;;;;;16.32;47.76;100597.94;4943235;28;98717;-70
2024/02/04 11:28:15;;;;;;;;;;;;;;;16.34;47.84;100600.34;4931352;28;98146;-67
2024/02/04 11:30:42;;;;;;;;;;;;;;;16.36;47.83;100595.44;4930812;28;98262;-67
2024/02/04 11:33:09;;;;;;;;;;;;;;;16.41;47.92;100589.88;4920384;28;98014;-70
2024/02/04 11:35:35;;;;;;;;;;;;;;;16.47;47.78;100594.13;4952634;28;98707;-70
2024/02/04 11:38:03;;;;;;;;;;;;;;;16.47;47.93;100583.22;4953712;28;99623;-67
2024/02/04 11:40:39;;;;;;;;;;;;;;;16.47;47.97;100585.97;4948766;28;98430;-70
2024/02/04 11:43:11;;;;;;;;;;;;;;;16.47;47.99;100577.78;4917594;28;98411;-67
2024/02/04 11:45:41;;;;;;;;;;;;;;;16.49;47.95;100574.75;4951839;28;99800;-70
2024/02/04 11:48:10;;;;;;;;;;;;;;;16.52;48.00;100569.50;4921547;28;100288;-70
2024/02/04 11:50:38;;;;;;;;;;;;;;;16.55;47.85;100592.59;4928651;28;98179;-67
2024/02/04 11:53:11;;;;;;;;;;;;;;;16.51;47.96;100588.88;4917389;28;98254;-70
2024/02/04 11:55:41;;;;;;;;;;;;;;;16.42;48.18;100592.28;4943340;28;98428;-67
2024/02/04 11:58:07;;;;;;;;;;;;;;;16.33;48.14;100596.03;4952718;28;99108;-67
2024/02/04 12:00:35;;;;;;;;;;;;;;;16.27;48.27;100592.63;4948614;28;98215;-71
2024/02/04 12:03:05;;;;;;;;;;;;;;;16.16;48.36;100593.91;4915428;28;98506;-71
2024/02/04 12:05:41;;;;;;;;;;;;;;;16.06;48.47;100608.50;4898409;28;100071;-72
2024/02/04 12:08:07;;;;;;;;;;;;;;;15.99;48.51;100607.28;4936040;28;99733;-72
2024/02/04 12:10:35;;;;;;;;;;;;;;;16.00;48.53;100592.59;4937351;28;98072;-69
2024/02/04 12:13:09;;;;;;;;;;;;;;;15.97;48.41;100596.72;4945803;28;99398;-71
2024/02/04 12:15:38;;;;;;;;;;;;;;;15.97;48.25;100585.84;4918534;28;98318;-68
2024/02/04 12:18:08;;;;;;;;;;;;;;;16.00;48.29;100589.88;4955950;28;98084;-68
2024/02/04 12:20:34;;;;;;;;;;;;;;;15.99;48.21;100589.03;4934846;28;98323;-70
2024/02/04 12:23:03;;;;;;;;;;;;;;;16.00;48.44;100587.97;4931451;28;98142;-67
2024/02/04 12:25:30;;;;;;;;;;;;;;;16.00;48.43;100576.28;4901514;28;98442;-68
2024/02/04 12:27:58;;;;;;;;;;;;;;;16.03;48.28;100578.38;4939594;28;98846;-70
2024/02/04 12:30:24;;;;;;;;;;;;;;;16.04;48.25;100580.81;4947402;28;115277;-67
2024/02/04 12:33:00;;;;;;;;;;;;;;;16.05;48.35;100570.75;4932921;28;99114;-70
2024/02/04 12:35:27;;;;;;;;;;;;;;;16.00;48.46;100573.56;4935030;28;98743;-67